createdAt,value
2019-03-03T00:01:45.821Z,4.05
2019-03-03T00:04:14.425Z,2.45
2019-03-03T00:06:42.573Z,3.80
2019-03-03T00:09:11.194Z,3.62
2019-03-03T00:11:38.918Z,3.90
2019-03-03T00:14:07.404Z,3.58
2019-03-03T00:16:35.481Z,3.60
2019-03-03T00:19:03.580Z,3.55
2019-03-03T00:21:31.464Z,4.05
2019-03-03T00:23:59.528Z,3.92
2019-03-03T00:26:28.154Z,3.62
2019-03-03T00:28:56.411Z,4.12
2019-03-03T00:31:27.675Z,3.08
2019-03-03T00:33:55.571Z,3.40
2019-03-03T00:36:23.724Z,3.53
2019-03-03T00:39:19.368Z,3.87
2019-03-03T00:42:10.986Z,2.62
2019-03-03T00:45:00.853Z,3.37
2019-03-03T00:47:45.327Z,4.12
2019-03-03T00:50:22.905Z,3.40
2019-03-03T00:53:08.814Z,4.25
2019-03-03T00:55:54.472Z,3.42
2019-03-03T00:58:33.982Z,3.10
2019-03-03T01:01:07.601Z,3.72
2019-03-03T01:03:40.491Z,3.05
2019-03-03T01:06:27.508Z,4.35
2019-03-03T01:09:20.889Z,3.60
2019-03-03T01:12:09.930Z,3.30
2019-03-03T01:14:49.375Z,3.20
2019-03-03T01:17:28.854Z,3.25
2019-03-03T01:20:22.889Z,3.33
2019-03-03T01:23:15.851Z,2.78
2019-03-03T01:25:44.143Z,3.90
2019-03-03T01:28:12.194Z,3.25
2019-03-03T01:30:40.086Z,2.78
2019-03-03T01:33:08.456Z,3.05
2019-03-03T01:35:36.536Z,3.35
2019-03-03T01:38:04.683Z,3.58
2019-03-03T01:40:32.565Z,2.67
2019-03-03T01:43:00.230Z,3.17
2019-03-03T01:45:28.797Z,2.80
2019-03-03T01:47:56.994Z,3.12
2019-03-03T01:50:24.738Z,2.40
2019-03-03T01:52:52.801Z,3.42
2019-03-03T01:55:21.652Z,2.40
2019-03-03T01:57:49.766Z,3.10
2019-03-03T02:00:19.689Z,3.30
2019-03-03T02:02:47.783Z,2.17
2019-03-03T02:05:15.633Z,3.00
2019-03-03T02:07:43.415Z,3.05
2019-03-03T02:10:12.261Z,2.53
2019-03-03T02:12:40.368Z,2.95
2019-03-03T02:15:09.238Z,3.35
2019-03-03T02:17:37.318Z,3.17
2019-03-03T02:20:05.078Z,3.70
2019-03-03T02:22:34.702Z,3.28
2019-03-03T02:25:03.478Z,3.58
2019-03-03T02:27:31.335Z,2.90
2019-03-03T02:29:59.469Z,3.10
2019-03-03T02:32:29.674Z,2.80
2019-03-03T02:35:00.494Z,3.33
2019-03-03T02:37:28.372Z,2.58
2019-03-03T02:39:58.579Z,3.60
2019-03-03T02:42:26.358Z,3.80
2019-03-03T02:44:55.002Z,3.53
2019-03-03T02:47:23.081Z,3.35
2019-03-03T02:49:51.322Z,2.85
2019-03-03T02:52:19.397Z,3.00
2019-03-03T02:54:48.031Z,3.80
2019-03-03T02:57:16.609Z,3.10
2019-03-03T02:59:44.744Z,2.97
2019-03-03T03:02:31.480Z,3.50
2019-03-03T03:04:59.840Z,3.72
2019-03-03T03:07:36.401Z,5.07
2019-03-03T03:10:30.102Z,3.60
2019-03-03T03:13:03.677Z,3.67
2019-03-03T03:15:56.585Z,3.80
2019-03-03T03:18:51.112Z,3.67
2019-03-03T03:21:26.770Z,4.07
2019-03-03T03:23:59.346Z,4.28
2019-03-03T03:26:35.918Z,3.22
2019-03-03T03:29:14.779Z,3.67
2019-03-03T03:32:00.449Z,3.60
2019-03-03T03:34:36.503Z,3.42
2019-03-03T03:37:13.871Z,3.47
2019-03-03T03:39:58.340Z,3.75
2019-03-03T03:42:45.324Z,3.42
2019-03-03T03:45:34.923Z,3.55
2019-03-03T03:48:12.303Z,4.10
2019-03-03T03:50:50.742Z,5.10
2019-03-03T03:53:28.109Z,4.18
2019-03-03T03:56:11.751Z,4.22
2019-03-03T03:58:50.460Z,4.20
2019-03-03T04:01:56.222Z,2.95
2019-03-03T04:04:50.421Z,4.25
2019-03-03T04:07:37.529Z,3.67
2019-03-03T04:10:10.914Z,4.10
2019-03-03T04:13:04.612Z,4.32
2019-03-03T04:15:46.497Z,3.78
2019-03-03T04:18:33.803Z,4.03
2019-03-03T04:21:32.898Z,4.05
2019-03-03T04:24:20.128Z,3.65
2019-03-03T04:27:10.435Z,3.10
2019-03-03T04:29:58.123Z,3.50
2019-03-03T04:32:51.529Z,4.15
2019-03-03T04:35:42.173Z,3.78
2019-03-03T04:38:15.713Z,4.20
2019-03-03T04:41:05.716Z,4.43
2019-03-03T04:43:46.373Z,3.87
2019-03-03T04:46:33.477Z,4.60
2019-03-03T04:49:09.708Z,4.37
2019-03-03T04:51:55.537Z,3.70
2019-03-03T04:54:45.734Z,4.28
2019-03-03T04:57:36.125Z,3.78
2019-03-03T05:00:24.557Z,4.62
2019-03-03T05:03:05.047Z,4.55
2019-03-03T05:05:52.135Z,4.37
2019-03-03T05:08:39.784Z,4.43
2019-03-03T05:11:15.824Z,3.72
2019-03-03T05:13:52.310Z,4.32
2019-03-03T05:16:42.826Z,3.42
2019-03-03T05:19:21.102Z,4.18
2019-03-03T05:21:49.712Z,4.57
2019-03-03T05:24:17.776Z,4.62
2019-03-03T05:26:46.107Z,4.22
2019-03-03T05:29:14.222Z,4.47
2019-03-03T05:31:41.678Z,4.03
2019-03-03T05:34:10.238Z,4.87
2019-03-03T05:36:38.319Z,5.55
2019-03-03T05:39:06.609Z,5.78
2019-03-03T05:41:35.253Z,5.80
2019-03-03T05:44:03.043Z,5.07
2019-03-03T05:46:31.130Z,5.50
2019-03-03T05:48:59.200Z,5.43
2019-03-03T05:51:27.277Z,5.68
2019-03-03T05:53:55.337Z,5.62
2019-03-03T05:56:23.430Z,5.93
2019-03-03T05:58:51.558Z,6.35
2019-03-03T06:01:21.038Z,6.72
2019-03-03T06:03:49.150Z,7.32
2019-03-03T06:06:16.922Z,9.50
2019-03-03T06:08:44.965Z,6.47
2019-03-03T06:11:13.480Z,6.62
2019-03-03T06:13:41.558Z,6.70
2019-03-03T06:16:09.414Z,8.25
2019-03-03T06:18:37.875Z,6.70
2019-03-03T06:21:06.125Z,8.20
2019-03-03T06:23:34.714Z,7.03
2019-03-03T06:26:03.716Z,7.90
2019-03-03T06:28:31.787Z,7.65
2019-03-03T06:30:59.894Z,8.63
2019-03-03T06:33:28.330Z,5.47
2019-03-03T06:35:56.430Z,7.10
2019-03-03T06:38:24.510Z,6.53
2019-03-03T06:40:52.777Z,6.90
2019-03-03T06:43:20.535Z,6.85
2019-03-03T06:45:48.311Z,5.82
2019-03-03T06:48:16.601Z,7.10
2019-03-03T06:50:44.466Z,6.65
2019-03-03T06:53:12.528Z,8.10
2019-03-03T06:55:40.690Z,6.62
2019-03-03T06:58:08.136Z,5.60
2019-03-03T07:00:36.694Z,6.68
2019-03-03T07:03:05.238Z,7.00
2019-03-03T07:05:33.263Z,6.57
2019-03-03T07:08:01.358Z,6.37
2019-03-03T07:10:30.127Z,6.72
2019-03-03T07:12:57.902Z,5.25
2019-03-03T07:15:26.091Z,5.62
2019-03-03T07:17:54.248Z,7.20
2019-03-03T07:20:22.321Z,6.10
2019-03-03T07:22:50.083Z,4.60
2019-03-03T07:25:18.164Z,6.00
2019-03-03T07:27:45.628Z,5.87
2019-03-03T07:30:13.979Z,6.22
2019-03-03T07:32:48.729Z,4.40
2019-03-03T07:35:16.805Z,5.65
2019-03-03T07:37:44.573Z,6.50
2019-03-03T07:40:12.757Z,4.53
2019-03-03T07:42:40.790Z,5.70
2019-03-03T07:45:10.012Z,6.37
2019-03-03T07:47:38.098Z,5.65
2019-03-03T07:50:05.929Z,6.47
2019-03-03T07:52:34.005Z,6.00
2019-03-03T07:55:02.116Z,6.05
2019-03-03T07:57:30.144Z,5.65
2019-03-03T07:59:58.346Z,8.35
2019-03-03T08:02:26.391Z,6.90
2019-03-03T08:04:55.012Z,6.20
2019-03-03T08:07:23.146Z,6.25
2019-03-03T08:09:51.927Z,6.45
2019-03-03T08:12:19.809Z,6.00
2019-03-03T08:14:47.901Z,6.68
2019-03-03T08:17:16.156Z,6.87
2019-03-03T08:19:44.211Z,5.12
2019-03-03T08:22:12.080Z,7.22
2019-03-03T08:24:39.692Z,5.18
2019-03-03T08:27:07.521Z,6.80
2019-03-03T08:29:35.762Z,7.00
2019-03-03T08:32:04.163Z,7.45
2019-03-03T08:34:31.940Z,7.75
2019-03-03T08:37:00.320Z,6.78
2019-03-03T08:39:28.362Z,6.90
2019-03-03T08:42:01.865Z,7.20
2019-03-03T08:44:53.188Z,7.47
2019-03-03T08:47:33.101Z,7.75
2019-03-03T08:50:12.196Z,5.15
2019-03-03T08:52:49.350Z,6.90
2019-03-03T08:55:33.422Z,8.32
2019-03-03T08:58:08.245Z,6.85
2019-03-03T09:00:54.343Z,7.53
2019-03-03T09:03:41.444Z,7.15
2019-03-03T09:06:31.338Z,7.57
2019-03-03T09:09:16.998Z,6.45
2019-03-03T09:12:06.268Z,7.57
2019-03-03T09:15:05.265Z,6.37
2019-03-03T09:17:46.672Z,7.25
2019-03-03T09:20:36.562Z,6.57
2019-03-03T09:23:29.535Z,6.75
2019-03-03T09:26:25.415Z,7.25
2019-03-03T09:29:03.684Z,7.87
2019-03-03T09:32:06.110Z,7.00
2019-03-03T09:34:59.950Z,5.28
2019-03-03T09:37:34.098Z,6.10
2019-03-03T09:40:27.555Z,7.28
2019-03-03T09:43:14.360Z,7.07
2019-03-03T09:46:19.604Z,5.95
2019-03-03T09:49:12.773Z,5.30
2019-03-03T09:52:09.015Z,5.53
2019-03-03T09:54:42.677Z,5.10
2019-03-03T09:57:30.137Z,5.12
2019-03-03T10:00:17.726Z,4.53
2019-03-03T10:03:16.977Z,5.43
2019-03-03T10:06:02.651Z,6.45
2019-03-03T10:08:57.454Z,5.60
2019-03-03T10:11:34.076Z,4.82
2019-03-03T10:14:21.629Z,4.70
2019-03-03T10:17:13.969Z,4.57
2019-03-03T10:20:01.603Z,4.55
2019-03-03T10:23:00.916Z,5.32
2019-03-03T10:25:46.806Z,5.40
2019-03-03T10:28:32.390Z,4.90
2019-03-03T10:31:12.352Z,5.30
2019-03-03T10:33:58.027Z,5.00
2019-03-03T10:36:47.801Z,5.80
2019-03-03T10:39:36.936Z,4.45
2019-03-03T10:42:27.924Z,5.47
2019-03-03T10:45:19.804Z,6.12
2019-03-03T10:48:00.468Z,6.00
2019-03-03T10:51:02.620Z,5.43
2019-03-03T10:53:46.135Z,6.22
2019-03-03T10:56:39.011Z,5.03
2019-03-03T10:59:32.976Z,4.32
2019-03-03T11:02:25.536Z,5.12
2019-03-03T11:05:04.115Z,5.28
2019-03-03T11:07:55.891Z,5.00
2019-03-03T11:10:57.170Z,4.93
2019-03-03T11:13:35.025Z,4.65
2019-03-03T11:16:20.646Z,5.70
2019-03-03T11:19:20.132Z,4.97
2019-03-03T11:22:16.243Z,4.55
2019-03-03T11:25:06.039Z,6.22
2019-03-03T11:27:49.196Z,7.18
2019-03-03T11:30:37.484Z,5.45
2019-03-03T11:33:14.049Z,5.65
2019-03-03T11:36:07.349Z,5.80
2019-03-03T11:38:51.700Z,5.72
2019-03-03T11:41:27.961Z,5.28
2019-03-03T11:44:11.381Z,4.85
2019-03-03T11:47:04.549Z,5.47
2019-03-03T11:49:38.244Z,7.00
2019-03-03T11:52:34.434Z,6.32
2019-03-03T11:55:27.544Z,6.03
2019-03-03T11:58:14.658Z,5.78
2019-03-03T12:00:55.700Z,4.95
2019-03-03T12:03:36.408Z,4.75
2019-03-03T12:06:30.865Z,5.97
2019-03-03T12:09:29.791Z,4.50
2019-03-03T12:12:14.857Z,5.43
2019-03-03T12:14:54.344Z,4.90
2019-03-03T12:17:28.750Z,4.70
2019-03-03T12:20:24.746Z,3.90
2019-03-03T12:23:17.296Z,4.37
2019-03-03T12:25:59.456Z,4.40
2019-03-03T12:28:45.708Z,4.15
2019-03-03T12:31:27.351Z,3.58
2019-03-03T12:34:12.113Z,4.55
2019-03-03T12:37:07.951Z,4.30
2019-03-03T12:39:43.811Z,4.47
2019-03-03T12:42:36.635Z,4.32
2019-03-03T12:45:22.851Z,4.35
2019-03-03T12:48:04.409Z,5.28
2019-03-03T12:50:49.184Z,5.00
2019-03-03T12:53:26.152Z,4.30
2019-03-03T12:56:10.326Z,4.72
2019-03-03T12:59:06.547Z,4.32
2019-03-03T13:01:48.513Z,5.05
2019-03-03T13:04:41.311Z,5.45
2019-03-03T13:07:34.457Z,4.57
2019-03-03T13:10:21.467Z,4.40
2019-03-03T13:12:56.536Z,4.20
2019-03-03T13:15:42.520Z,4.37
2019-03-03T13:18:45.574Z,4.70
2019-03-03T13:21:31.376Z,5.40
2019-03-03T13:24:17.189Z,5.32
2019-03-03T13:27:04.770Z,5.12
2019-03-03T13:29:50.889Z,4.80
2019-03-03T13:32:43.659Z,5.37
2019-03-03T13:35:31.693Z,5.60
2019-03-03T13:38:12.064Z,5.70
2019-03-03T13:40:58.246Z,5.15
2019-03-03T13:43:26.304Z,5.90
2019-03-03T13:45:54.376Z,5.00
2019-03-03T13:48:23.246Z,5.87
2019-03-03T13:50:51.359Z,7.35
2019-03-03T13:53:19.194Z,5.60
2019-03-03T13:55:47.304Z,5.68
2019-03-03T13:58:15.459Z,5.95
2019-03-03T14:00:43.722Z,6.05
2019-03-03T14:03:11.782Z,5.62
2019-03-03T14:05:40.084Z,5.65
2019-03-03T14:08:07.866Z,5.12
2019-03-03T14:10:36.265Z,6.32
2019-03-03T14:13:03.783Z,7.18
2019-03-03T14:15:32.115Z,7.40
2019-03-03T14:18:00.504Z,6.90
2019-03-03T14:20:28.591Z,5.82
2019-03-03T14:22:56.684Z,5.90
2019-03-03T14:25:24.753Z,6.03
2019-03-03T14:27:52.820Z,5.50
2019-03-03T14:30:21.413Z,6.65
2019-03-03T14:32:49.783Z,4.62
2019-03-03T14:35:17.850Z,5.40
2019-03-03T14:37:45.903Z,5.57
2019-03-03T14:40:14.686Z,5.55
2019-03-03T14:42:42.787Z,5.70
2019-03-03T14:45:11.351Z,5.18
2019-03-03T14:47:39.234Z,7.45
2019-03-03T14:50:07.908Z,5.90
2019-03-03T14:52:35.956Z,6.12
2019-03-03T14:55:04.248Z,5.82
2019-03-03T14:57:32.351Z,5.55
2019-03-03T15:00:00.376Z,5.28
2019-03-03T15:02:28.766Z,5.93
2019-03-03T15:04:56.844Z,5.50
2019-03-03T15:07:24.917Z,5.75
2019-03-03T15:09:52.988Z,5.62
2019-03-03T15:12:21.257Z,5.72
2019-03-03T15:14:49.328Z,6.60
2019-03-03T15:17:17.933Z,4.62
2019-03-03T15:19:45.990Z,5.90
2019-03-03T15:22:14.089Z,5.93
2019-03-03T15:24:41.631Z,4.78
2019-03-03T15:27:09.293Z,5.20
2019-03-03T15:29:37.344Z,5.30
2019-03-03T15:32:05.685Z,6.40
2019-03-03T15:34:33.788Z,5.80
2019-03-03T15:37:01.890Z,6.25
2019-03-03T15:39:29.732Z,6.15
2019-03-03T15:41:57.551Z,5.20
2019-03-03T15:44:25.812Z,3.75
2019-03-03T15:46:53.948Z,5.07
2019-03-03T15:49:22.034Z,5.32
2019-03-03T15:51:50.090Z,4.50
2019-03-03T15:54:18.454Z,4.12
2019-03-03T15:56:46.657Z,5.50
2019-03-03T15:59:14.829Z,4.68
2019-03-03T16:01:42.901Z,4.55
2019-03-03T16:04:10.958Z,4.28
2019-03-03T16:06:39.011Z,4.12
2019-03-03T16:09:06.503Z,3.80
2019-03-03T16:11:34.237Z,4.45
2019-03-03T16:14:02.014Z,3.75
2019-03-03T16:16:30.506Z,3.80
2019-03-03T16:18:59.273Z,3.58
2019-03-03T16:21:27.958Z,4.12
2019-03-03T16:23:56.041Z,3.67
2019-03-03T16:26:24.121Z,2.85
2019-03-03T16:28:51.864Z,4.07
2019-03-03T16:31:19.957Z,4.10
2019-03-03T16:33:47.715Z,4.45
2019-03-03T16:36:15.786Z,4.30
2019-03-03T16:38:44.379Z,5.30
2019-03-03T16:41:12.439Z,3.47
2019-03-03T16:43:40.502Z,4.00
2019-03-03T16:46:08.671Z,3.92
2019-03-03T16:48:36.862Z,4.05
2019-03-03T16:51:04.626Z,4.30
2019-03-03T16:53:33.174Z,4.20
2019-03-03T16:56:01.269Z,3.87
2019-03-03T16:58:29.312Z,4.25
2019-03-03T17:00:57.698Z,4.30
2019-03-03T17:03:25.575Z,3.60
2019-03-03T17:05:53.687Z,3.87
2019-03-03T17:08:22.155Z,3.95
2019-03-03T17:10:49.625Z,3.67
2019-03-03T17:13:17.789Z,3.75
2019-03-03T17:15:45.848Z,3.30
2019-03-03T17:18:13.880Z,4.00
2019-03-03T17:20:42.183Z,4.03
2019-03-03T17:23:10.574Z,4.03
2019-03-03T17:25:38.710Z,4.12
2019-03-03T17:28:06.800Z,3.47
2019-03-03T17:30:34.971Z,3.95
2019-03-03T17:33:03.044Z,3.62
2019-03-03T17:35:31.219Z,5.00
2019-03-03T17:37:59.102Z,4.43
2019-03-03T17:40:27.260Z,4.70
2019-03-03T17:42:54.739Z,4.47
2019-03-03T17:45:23.567Z,4.00
2019-03-03T17:47:51.282Z,4.55
2019-03-03T17:50:19.467Z,3.78
2019-03-03T17:52:47.832Z,4.10
2019-03-03T17:55:16.414Z,4.32
2019-03-03T17:57:44.592Z,3.62
2019-03-03T18:00:13.889Z,5.72
2019-03-03T18:02:41.700Z,4.85
2019-03-03T18:05:09.824Z,5.10
2019-03-03T18:07:38.668Z,4.60
2019-03-03T18:10:06.686Z,4.28
2019-03-03T18:12:34.723Z,4.62
2019-03-03T18:15:03.440Z,5.20
2019-03-03T18:17:31.496Z,3.95
2019-03-03T18:19:59.573Z,3.40
2019-03-03T18:22:27.987Z,4.53
2019-03-03T18:24:56.019Z,4.43
2019-03-03T18:27:23.787Z,4.72
2019-03-03T18:29:51.861Z,5.07
2019-03-03T18:32:19.925Z,4.87
2019-03-03T18:34:47.993Z,3.80
2019-03-03T18:37:16.088Z,4.65
2019-03-03T18:39:44.139Z,4.55
2019-03-03T18:42:12.214Z,4.53
2019-03-03T18:44:40.180Z,3.85
2019-03-03T18:47:08.227Z,4.20
2019-03-03T18:49:36.335Z,4.22
2019-03-03T18:52:04.774Z,4.70
2019-03-03T18:54:32.919Z,4.00
2019-03-03T18:57:00.635Z,3.90
2019-03-03T18:59:29.018Z,3.75
2019-03-03T19:01:56.978Z,4.40
2019-03-03T19:04:24.923Z,4.87
2019-03-03T19:06:52.797Z,4.15
2019-03-03T19:09:22.807Z,5.05
2019-03-03T19:11:50.306Z,3.28
2019-03-03T19:14:27.825Z,4.53
2019-03-03T19:16:47.473Z,4.78
2019-03-03T19:19:15.220Z,5.30
2019-03-03T19:21:43.407Z,5.40
2019-03-03T19:24:10.951Z,5.65
2019-03-03T19:26:39.024Z,4.95
2019-03-03T19:29:06.459Z,5.55
2019-03-03T19:31:34.554Z,4.18
2019-03-03T19:34:02.627Z,4.37
2019-03-03T19:36:31.078Z,4.55
2019-03-03T19:38:58.917Z,4.28
2019-03-03T19:41:26.729Z,4.55
2019-03-03T19:43:54.497Z,4.60
2019-03-03T19:46:23.662Z,5.15
2019-03-03T19:48:51.883Z,4.37
2019-03-03T19:51:20.247Z,4.68
2019-03-03T19:53:48.330Z,4.30
2019-03-03T19:56:16.219Z,4.43
2019-03-03T19:58:44.649Z,4.15
2019-03-03T20:01:12.453Z,4.10
2019-03-03T20:03:40.410Z,3.62
2019-03-03T20:06:08.770Z,3.72
2019-03-03T20:08:36.736Z,4.35
2019-03-03T20:11:04.692Z,2.95
2019-03-03T20:13:33.001Z,3.85
2019-03-03T20:16:00.967Z,3.72
2019-03-03T20:18:28.940Z,3.10
2019-03-03T20:20:57.393Z,3.35
2019-03-03T20:23:25.085Z,3.72
2019-03-03T20:25:53.371Z,3.70
2019-03-03T20:28:21.205Z,3.83
2019-03-03T20:30:49.141Z,4.25
2019-03-03T20:33:17.271Z,2.83
2019-03-03T20:35:45.336Z,4.47
2019-03-03T20:38:13.414Z,3.47
2019-03-03T20:40:41.176Z,3.90
2019-03-03T20:43:09.499Z,3.75
2019-03-03T20:45:37.297Z,3.85
2019-03-03T20:48:05.386Z,3.55
2019-03-03T20:50:33.440Z,3.25
2019-03-03T20:53:01.225Z,3.92
2019-03-03T20:55:29.007Z,2.95
2019-03-03T20:57:57.051Z,3.78
2019-03-03T21:00:25.715Z,3.47
2019-03-03T21:02:53.784Z,3.58
2019-03-03T21:05:22.393Z,3.40
2019-03-03T21:07:51.619Z,3.65
2019-03-03T21:10:18.682Z,3.60
2019-03-03T21:12:46.859Z,4.10
2019-03-03T21:15:14.992Z,3.50
2019-03-03T21:17:43.040Z,3.12
2019-03-03T21:20:11.962Z,3.60
2019-03-03T21:22:40.024Z,3.53
2019-03-03T21:25:08.330Z,3.25
2019-03-03T21:27:37.265Z,4.37
2019-03-03T21:30:07.456Z,2.97
2019-03-03T21:32:35.560Z,2.90
2019-03-03T21:35:03.672Z,3.45
2019-03-03T21:37:31.774Z,4.20
2019-03-03T21:39:59.862Z,3.10
2019-03-03T21:42:28.359Z,3.53
2019-03-03T21:44:56.451Z,3.78
2019-03-03T21:47:24.476Z,4.45
2019-03-03T21:49:52.885Z,3.65
2019-03-03T21:52:20.950Z,4.18
2019-03-03T21:54:49.070Z,4.40
2019-03-03T21:57:16.930Z,3.65
2019-03-03T21:59:44.664Z,3.87
2019-03-03T22:02:12.719Z,4.60
2019-03-03T22:04:41.060Z,3.70
2019-03-03T22:07:09.148Z,3.50
2019-03-03T22:09:37.247Z,3.35
2019-03-03T22:12:05.836Z,4.03
2019-03-03T22:14:33.881Z,3.53
2019-03-03T22:17:01.940Z,3.42
2019-03-03T22:19:30.064Z,3.80
2019-03-03T22:21:58.134Z,3.70
2019-03-03T22:24:26.307Z,3.90
2019-03-03T22:26:54.397Z,3.95
2019-03-03T22:29:22.953Z,3.70
2019-03-03T22:31:51.034Z,3.78
2019-03-03T22:34:19.101Z,3.45
2019-03-03T22:36:47.152Z,3.60
2019-03-03T22:39:15.149Z,3.53
2019-03-03T22:41:43.390Z,2.87
2019-03-03T22:44:11.972Z,3.25
2019-03-03T22:46:39.941Z,3.55
2019-03-03T22:49:07.642Z,3.12
2019-03-03T22:51:35.572Z,2.90
2019-03-03T22:54:03.537Z,3.30
2019-03-03T22:56:31.493Z,2.55
2019-03-03T22:58:59.425Z,2.62
2019-03-03T23:01:32.362Z,3.17
2019-03-03T23:04:12.449Z,3.20
2019-03-03T23:06:45.845Z,3.40
2019-03-03T23:09:32.734Z,2.78
2019-03-03T23:12:04.572Z,3.50
2019-03-03T23:14:49.565Z,2.83
2019-03-03T23:17:35.385Z,2.55
2019-03-03T23:20:18.365Z,2.28
2019-03-03T23:23:04.685Z,2.25
2019-03-03T23:25:51.997Z,2.35
2019-03-03T23:28:20.484Z,2.20
2019-03-03T23:30:49.063Z,2.90
2019-03-03T23:33:18.157Z,2.10
2019-03-03T23:35:45.919Z,2.50
2019-03-03T23:38:13.884Z,2.30
2019-03-03T23:40:41.942Z,2.28
2019-03-03T23:43:10.122Z,2.55
2019-03-03T23:45:39.088Z,2.33
2019-03-03T23:48:07.497Z,2.30
2019-03-03T23:50:35.556Z,2.28
2019-03-03T23:53:03.756Z,2.00
2019-03-03T23:55:32.947Z,2.53
2019-03-03T23:58:01.003Z,1.98
